Terminal Aerodrome Forecast
Issued by NWS Houston/Galveston, TX

Home | Current Version | Previous Version | Text Only | Print | Product List | Glossary On
Versions: 1 2 3 4 5 6 7 8 9 10 11 12 13 14 15 16 17 18 19 20 21 22 23 24 25 26 27 28 29 30 31 32 33 34 35 36 37 38 39 40 41 42 43 44 45 46 47 48 49 50
519
FTUS44 KHGX 281238 AAA
TAFCLL
TAF AMD
KCLL 281238Z 2813/2912 21004KT P6SM BKN250
     FM281400 21008KT P6SM SCT022 OVC030
      TEMPO 2815/2817 BKN027
     FM281700 17005KT P6SM VCSH SCT035
     FM282100 VRB07KT P6SM VCTS SCT040CB OVC250
      TEMPO 2821/2901 VRB10G25KT 4SM TSRA BKN027CB OVC050
     FM290200 VRB05KT P6SM VCSH SCT025 BKN050
      TEMPO 2902/2906 SHRA BKN020 OVC030=

USA.gov is the U.S. government's official web portal to all federal, state and local government web resources and services.